sensor_id;sensor_type;location;lat;lon;timestamp;pressure;altitude;pressure_sealevel;temperature;humidity
61324;BME280;47203;48.428;11.974;2023-03-03T00:00:22;96846.50;;;8.80;37.09
61324;BME280;47203;48.428;11.974;2023-03-03T00:02:27;96847.50;;;8.74;37.10
61324;BME280;47203;48.428;11.974;2023-03-03T00:04:34;96856.97;;;8.75;37.38
61324;BME280;47203;48.428;11.974;2023-03-03T00:06:38;96848.84;;;8.77;37.23
61324;BME280;47203;48.428;11.974;2023-03-03T00:08:43;96848.59;;;8.78;37.46
61324;BME280;47203;48.428;11.974;2023-03-03T00:10:47;96854.88;;;8.77;37.23
61324;BME280;47203;48.428;11.974;2023-03-03T00:12:53;96848.06;;;8.76;37.12
61324;BME280;47203;48.428;11.974;2023-03-03T00:14:57;96849.63;;;8.77;37.43
61324;BME280;47203;48.428;11.974;2023-03-03T00:17:06;96856.16;;;8.74;37.34
61324;BME280;47203;48.428;11.974;2023-03-03T00:19:17;96854.28;;;8.70;37.40
61324;BME280;47203;48.428;11.974;2023-03-03T00:21:27;96841.41;;;8.68;37.26
61324;BME280;47203;48.428;11.974;2023-03-03T00:23:34;96852.72;;;8.69;37.33
61324;BME280;47203;48.428;11.974;2023-03-03T00:25:39;96845.88;;;8.68;37.40
61324;BME280;47203;48.428;11.974;2023-03-03T00:27:46;96849.53;;;8.67;37.37
61324;BME280;47203;48.428;11.974;2023-03-03T00:29:51;96851.38;;;8.66;37.29
61324;BME280;47203;48.428;11.974;2023-03-03T00:31:58;96856.06;;;8.64;37.21
61324;BME280;47203;48.428;11.974;2023-03-03T00:34:18;96853.66;;;8.58;37.47
61324;BME280;47203;48.428;11.974;2023-03-03T00:36:30;96846.53;;;8.53;37.58
61324;BME280;47203;48.428;11.974;2023-03-03T00:38:39;96850.19;;;8.52;37.43
61324;BME280;47203;48.428;11.974;2023-03-03T00:40:43;96850.13;;;8.47;37.39
61324;BME280;47203;48.428;11.974;2023-03-03T00:42:49;96850.94;;;8.47;37.50
61324;BME280;47203;48.428;11.974;2023-03-03T00:44:55;96859.81;;;8.46;37.30
61324;BME280;47203;48.428;11.974;2023-03-03T00:47:00;96852.75;;;8.47;37.24
61324;BME280;47203;48.428;11.974;2023-03-03T00:49:07;96858.78;;;8.47;37.39
61324;BME280;47203;48.428;11.974;2023-03-03T00:51:25;96853.31;;;8.49;37.20
61324;BME280;47203;48.428;11.974;2023-03-03T00:53:33;96854.66;;;8.51;37.26
61324;BME280;47203;48.428;11.974;2023-03-03T00:55:37;96856.22;;;8.52;37.20
61324;BME280;47203;48.428;11.974;2023-03-03T00:57:43;96850.97;;;8.52;37.37
61324;BME280;47203;48.428;11.974;2023-03-03T00:59:50;96851.78;;;8.53;37.37
61324;BME280;47203;48.428;11.974;2023-03-03T01:01:55;96847.56;;;8.52;37.51
61324;BME280;47203;48.428;11.974;2023-03-03T01:04:00;96849.88;;;8.48;37.44
61324;BME280;47203;48.428;11.974;2023-03-03T01:06:04;96847.19;;;8.43;37.39
61324;BME280;47203;48.428;11.974;2023-03-03T01:08:09;96850.03;;;8.42;37.37
61324;BME280;47203;48.428;11.974;2023-03-03T01:10:16;96848.69;;;8.39;37.47
61324;BME280;47203;48.428;11.974;2023-03-03T01:12:22;96832.44;;;8.37;37.58
61324;BME280;47203;48.428;11.974;2023-03-03T01:14:26;96839.75;;;8.35;37.40
61324;BME280;47203;48.428;11.974;2023-03-03T01:16:31;96838.19;;;8.34;37.63
61324;BME280;47203;48.428;11.974;2023-03-03T01:18:35;96833.19;;;8.32;37.30
61324;BME280;47203;48.428;11.974;2023-03-03T01:20:40;96832.38;;;8.32;37.54
61324;BME280;47203;48.428;11.974;2023-03-03T01:22:45;96834.75;;;8.33;37.56
61324;BME280;47203;48.428;11.974;2023-03-03T01:24:50;96834.22;;;8.31;37.26
61324;BME280;47203;48.428;11.974;2023-03-03T01:26:57;96840.97;;;8.27;37.65
61324;BME280;47203;48.428;11.974;2023-03-03T01:29:01;96842.25;;;8.25;37.64
61324;BME280;47203;48.428;11.974;2023-03-03T01:31:05;96842.25;;;8.25;37.52
61324;BME280;47203;48.428;11.974;2023-03-03T01:33:10;96842.25;;;8.25;37.46
61324;BME280;47203;48.428;11.974;2023-03-03T01:35:15;96845.69;;;8.25;37.65
61324;BME280;47203;48.428;11.974;2023-03-03T01:37:20;96853.56;;;8.25;37.42
61324;BME280;47203;48.428;11.974;2023-03-03T01:39:24;96850.94;;;8.25;37.65
61324;BME280;47203;48.428;11.974;2023-03-03T01:41:29;96852.50;;;8.26;37.44
61324;BME280;47203;48.428;11.974;2023-03-03T01:43:41;96858.31;;;8.28;37.60
61324;BME280;47203;48.428;11.974;2023-03-03T01:48:05;96853.31;;;8.27;37.39
61324;BME280;47203;48.428;11.974;2023-03-03T01:50:14;96851.47;;;8.27;37.56
61324;BME280;47203;48.428;11.974;2023-03-03T01:52:23;96851.47;;;8.27;37.53
61324;BME280;47203;48.428;11.974;2023-03-03T01:54:30;96855.13;;;8.26;37.61
61324;BME280;47203;48.428;11.974;2023-03-03T01:56:37;96852.22;;;8.23;37.56
61324;BME280;47203;48.428;11.974;2023-03-03T01:58:44;96857.69;;;8.21;37.54
61324;BME280;47203;48.428;11.974;2023-03-03T02:00:52;96849.25;;;8.19;37.69
61324;BME280;47203;48.428;11.974;2023-03-03T02:02:59;96853.72;;;8.18;37.61
61324;BME280;47203;48.428;11.974;2023-03-03T02:05:04;96854.75;;;8.17;37.47
61324;BME280;47203;48.428;11.974;2023-03-03T02:07:10;96843.50;;;8.17;37.56
61324;BME280;47203;48.428;11.974;2023-03-03T02:09:16;96840.34;;;8.15;37.70
61324;BME280;47203;48.428;11.974;2023-03-03T02:11:23;96839.53;;;8.14;37.73
61324;BME280;47203;48.428;11.974;2023-03-03T02:13:28;96841.34;;;8.14;37.59
61324;BME280;47203;48.428;11.974;2023-03-03T02:15:35;96838.16;;;8.12;37.72
61324;BME280;47203;48.428;11.974;2023-03-03T02:17:40;96835.78;;;8.10;37.55
61324;BME280;47203;48.428;11.974;2023-03-03T02:19:46;96838.66;;;8.09;37.68
61324;BME280;47203;48.428;11.974;2023-03-03T02:21:53;96840.50;;;8.08;37.69
61324;BME280;47203;48.428;11.974;2023-03-03T02:23:59;96835.25;;;8.08;37.72
61324;BME280;47203;48.428;11.974;2023-03-03T02:26:10;96842.59;;;8.06;37.52
61324;BME280;47203;48.428;11.974;2023-03-03T02:28:16;96836.53;;;8.06;37.63
61324;BME280;47203;48.428;11.974;2023-03-03T02:30:22;96836.00;;;8.03;37.72
61324;BME280;47203;48.428;11.974;2023-03-03T02:32:27;96836.00;;;8.03;37.80
61324;BME280;47203;48.428;11.974;2023-03-03T02:34:42;96837.28;;;8.01;37.80
61324;BME280;47203;48.428;11.974;2023-03-03T02:36:47;96831.50;;;7.99;37.83
61324;BME280;47203;48.428;11.974;2023-03-03T02:38:52;96836.97;;;7.97;37.72
61324;BME280;47203;48.428;11.974;2023-03-03T02:41:02;96839.03;;;7.95;37.74
61324;BME280;47203;48.428;11.974;2023-03-03T02:43:12;96840.31;;;7.93;37.91
61324;BME280;47203;48.428;11.974;2023-03-03T02:45:19;96843.75;;;7.93;37.72
61324;BME280;47203;48.428;11.974;2023-03-03T02:47:23;96848.97;;;7.93;37.84
61324;BME280;47203;48.428;11.974;2023-03-03T02:49:28;96839.53;;;7.92;37.85
61324;BME280;47203;48.428;11.974;2023-03-03T02:51:34;96841.13;;;7.93;37.62
61324;BME280;47203;48.428;11.974;2023-03-03T02:53:39;96841.13;;;7.93;37.58
61324;BME280;47203;48.428;11.974;2023-03-03T02:55:43;96847.16;;;7.94;37.69
61324;BME280;47203;48.428;11.974;2023-03-03T02:57:48;96838.25;;;7.95;37.62
61324;BME280;47203;48.428;11.974;2023-03-03T02:59:55;96833.00;;;7.95;37.70
61324;BME280;47203;48.428;11.974;2023-03-03T03:02:00;96833.56;;;7.97;37.65
61324;BME280;47203;48.428;11.974;2023-03-03T03:04:04;96828.31;;;7.97;37.54
61324;BME280;47203;48.428;11.974;2023-03-03T03:06:10;96827.53;;;7.96;37.45
61324;BME280;47203;48.428;11.974;2023-03-03T03:08:16;96826.97;;;7.94;37.62
61324;BME280;47203;48.428;11.974;2023-03-03T03:10:20;96823.81;;;7.92;37.87
61324;BME280;47203;48.428;11.974;2023-03-03T03:12:25;96827.44;;;7.91;37.91
61324;BME280;47203;48.428;11.974;2023-03-03T03:14:31;96825.88;;;7.90;37.72
61324;BME280;47203;48.428;11.974;2023-03-03T03:16:38;96827.94;;;7.88;37.73
61324;BME280;47203;48.428;11.974;2023-03-03T03:18:44;96830.81;;;7.86;37.64
61324;BME280;47203;48.428;11.974;2023-03-03T03:20:50;96827.66;;;7.84;37.75
61324;BME280;47203;48.428;11.974;2023-03-03T03:22:55;96834.16;;;7.82;37.98
61324;BME280;47203;48.428;11.974;2023-03-03T03:24:59;96840.44;;;7.81;37.67
61324;BME280;47203;48.428;11.974;2023-03-03T03:27:04;96845.13;;;7.79;37.68
61324;BME280;47203;48.428;11.974;2023-03-03T03:29:09;96845.38;;;7.77;37.91
61324;BME280;47203;48.428;11.974;2023-03-03T03:31:14;96849.81;;;7.77;37.76
61324;BME280;47203;48.428;11.974;2023-03-03T03:33:22;96846.41;;;7.76;37.97
61324;BME280;47203;48.428;11.974;2023-03-03T03:35:29;96847.44;;;7.75;37.94
61324;BME280;47203;48.428;11.974;2023-03-03T03:37:34;96842.75;;;7.77;37.85
61324;BME280;47203;48.428;11.974;2023-03-03T03:39:38;96847.75;;;7.79;37.69
61324;BME280;47203;48.428;11.974;2023-03-03T03:41:43;96853.00;;;7.79;37.93
61324;BME280;47203;48.428;11.974;2023-03-03T03:43:48;96850.13;;;7.80;37.91
61324;BME280;47203;48.428;11.974;2023-03-03T03:45:52;96855.38;;;7.80;37.78
61324;BME280;47203;48.428;11.974;2023-03-03T03:47:58;96849.88;;;7.82;37.98
61324;BME280;47203;48.428;11.974;2023-03-03T03:50:07;96859.34;;;7.83;37.92
61324;BME280;47203;48.428;11.974;2023-03-03T03:52:12;96853.84;;;7.84;37.83
61324;BME280;47203;48.428;11.974;2023-03-03T03:54:16;96854.63;;;7.85;38.03
61324;BME280;47203;48.428;11.974;2023-03-03T03:56:22;96854.41;;;7.86;37.98
61324;BME280;47203;48.428;11.974;2023-03-03T03:58:30;96857.59;;;7.89;37.89
61324;BME280;47203;48.428;11.974;2023-03-03T04:00:38;96853.13;;;7.89;37.74
61324;BME280;47203;48.428;11.974;2023-03-03T04:02:43;96856.28;;;7.91;37.80
61324;BME280;47203;48.428;11.974;2023-03-03T04:04:49;96853.59;;;7.86;38.02
61324;BME280;47203;48.428;11.974;2023-03-03T04:06:56;96852.78;;;7.85;37.79
61324;BME280;47203;48.428;11.974;2023-03-03T04:09:01;96852.59;;;7.87;38.03
61324;BME280;47203;48.428;11.974;2023-03-03T04:11:05;96851.53;;;7.88;38.10
61324;BME280;47203;48.428;11.974;2023-03-03T04:13:10;96848.66;;;7.90;37.88
61324;BME280;47203;48.428;11.974;2023-03-03T04:15:15;96850.50;;;7.89;37.94
61324;BME280;47203;48.428;11.974;2023-03-03T04:17:20;96853.13;;;7.89;37.90
61324;BME280;47203;48.428;11.974;2023-03-03T04:19:25;96852.34;;;7.89;38.05
61324;BME280;47203;48.428;11.974;2023-03-03T04:21:30;96854.97;;;7.89;37.96
61324;BME280;47203;48.428;11.974;2023-03-03T04:23:38;96851.53;;;7.88;38.15
61324;BME280;47203;48.428;11.974;2023-03-03T04:25:44;96848.66;;;7.90;37.95
61324;BME280;47203;48.428;11.974;2023-03-03T04:27:49;96849.22;;;7.92;37.84
61324;BME280;47203;48.428;11.974;2023-03-03T04:29:56;96849.22;;;7.92;38.01
61324;BME280;47203;48.428;11.974;2023-03-03T04:32:00;96840.56;;;7.91;37.93
61324;BME280;47203;48.428;11.974;2023-03-03T04:34:06;96848.16;;;7.93;37.76
61324;BME280;47203;48.428;11.974;2023-03-03T04:36:12;96843.75;;;7.93;38.17
61324;BME280;47203;48.428;11.974;2023-03-03T04:38:17;96845.78;;;7.91;38.13
61324;BME280;47203;48.428;11.974;2023-03-03T04:40:26;96843.75;;;7.93;37.92
61324;BME280;47203;48.428;11.974;2023-03-03T04:42:31;96844.78;;;7.92;37.96
61324;BME280;47203;48.428;11.974;2023-03-03T04:44:36;96846.59;;;7.92;38.17
61324;BME280;47203;48.428;11.974;2023-03-03T04:46:41;96840.00;;;7.89;38.25
61324;BME280;47203;48.428;11.974;2023-03-03T04:48:45;96842.63;;;7.89;38.02
61324;BME280;47203;48.428;11.974;2023-03-03T04:50:50;96840.00;;;7.89;38.05
61324;BME280;47203;48.428;11.974;2023-03-03T04:52:55;96834.78;;;7.89;38.32
61324;BME280;47203;48.428;11.974;2023-03-03T04:55:00;96834.44;;;7.85;38.34
61324;BME280;47203;48.428;11.974;2023-03-03T04:57:08;96838.13;;;7.84;38.30
61324;BME280;47203;48.428;11.974;2023-03-03T04:59:12;96840.75;;;7.84;38.03
61324;BME280;47203;48.428;11.974;2023-03-03T05:01:17;96844.16;;;7.85;38.27
61324;BME280;47203;48.428;11.974;2023-03-03T05:03:22;96842.31;;;7.85;38.35
61324;BME280;47203;48.428;11.974;2023-03-03T05:05:27;96841.28;;;7.86;38.20
61324;BME280;47203;48.428;11.974;2023-03-03T05:07:32;96847.34;;;7.87;38.24
61324;BME280;47203;48.428;11.974;2023-03-03T05:09:36;96842.88;;;7.88;38.34
61324;BME280;47203;48.428;11.974;2023-03-03T05:11:41;96846.47;;;7.81;38.27
61324;BME280;47203;48.428;11.974;2023-03-03T05:13:48;96848.53;;;7.79;38.14
61324;BME280;47203;48.428;11.974;2023-03-03T05:15:53;96854.34;;;7.81;38.36
61324;BME280;47203;48.428;11.974;2023-03-03T05:17:58;96847.50;;;7.80;38.14
61324;BME280;47203;48.428;11.974;2023-03-03T05:20:02;96853.53;;;7.81;38.23
61324;BME280;47203;48.428;11.974;2023-03-03T05:22:09;96854.59;;;7.80;38.41
61324;BME280;47203;48.428;11.974;2023-03-03T05:24:13;96853.00;;;7.79;38.28
61324;BME280;47203;48.428;11.974;2023-03-03T05:26:18;96848.78;;;7.78;38.14
61324;BME280;47203;48.428;11.974;2023-03-03T05:28:23;96848.00;;;7.77;38.14
61324;BME280;47203;48.428;11.974;2023-03-03T05:30:30;96849.03;;;7.76;38.17
61324;BME280;47203;48.428;11.974;2023-03-03T05:32:34;96855.03;;;7.77;38.25
61324;BME280;47203;48.428;11.974;2023-03-03T05:34:39;96851.16;;;7.79;38.29
61324;BME280;47203;48.428;11.974;2023-03-03T05:36:43;96853.78;;;7.79;38.39
61324;BME280;47203;48.428;11.974;2023-03-03T05:38:48;96862.44;;;7.80;38.39
61324;BME280;47203;48.428;11.974;2023-03-03T05:40:52;96855.38;;;7.80;38.48
61324;BME280;47203;48.428;11.974;2023-03-03T05:42:57;96855.38;;;7.80;38.47
61324;BME280;47203;48.428;11.974;2023-03-03T05:45:01;96866.63;;;7.81;38.35
61324;BME280;47203;48.428;11.974;2023-03-03T05:47:08;96868.22;;;7.82;38.28
61324;BME280;47203;48.428;11.974;2023-03-03T05:49:14;96876.09;;;7.82;38.25
61324;BME280;47203;48.428;11.974;2023-03-03T05:51:21;96870.34;;;7.85;38.17
61324;BME280;47203;48.428;11.974;2023-03-03T05:53:26;96880.59;;;7.86;38.12
61324;BME280;47203;48.428;11.974;2023-03-03T05:55:31;96880.34;;;7.88;38.24
61324;BME280;47203;48.428;11.974;2023-03-03T05:57:35;96886.16;;;7.90;38.41
61324;BME280;47203;48.428;11.974;2023-03-03T05:59:40;96883.31;;;7.92;38.09
61324;BME280;47203;48.428;11.974;2023-03-03T06:01:44;96885.69;;;7.93;38.15
61324;BME280;47203;48.428;11.974;2023-03-03T06:03:51;96887.03;;;7.96;38.39
61324;BME280;47203;48.428;11.974;2023-03-03T06:05:56;96889.31;;;7.92;38.17
61324;BME280;47203;48.428;11.974;2023-03-03T06:08:00;96881.94;;;7.89;38.46
61324;BME280;47203;48.428;11.974;2023-03-03T06:10:05;96885.34;;;7.90;38.33
61324;BME280;47203;48.428;11.974;2023-03-03T06:12:13;96889.81;;;7.89;38.35
61324;BME280;47203;48.428;11.974;2023-03-03T06:14:17;96882.72;;;7.90;38.20
61324;BME280;47203;48.428;11.974;2023-03-03T06:16:22;96887.97;;;7.90;38.24
61324;BME280;47203;48.428;11.974;2023-03-03T06:18:26;96892.44;;;7.89;38.32
61324;BME280;47203;48.428;11.974;2023-03-03T06:20:34;96892.97;;;7.91;38.33
61324;BME280;47203;48.428;11.974;2023-03-03T06:22:39;96890.91;;;7.93;38.42
61324;BME280;47203;48.428;11.974;2023-03-03T06:24:43;96894.06;;;7.95;38.30
61324;BME280;47203;48.428;11.974;2023-03-03T06:26:48;96891.47;;;7.95;38.20
61324;BME280;47203;48.428;11.974;2023-03-03T06:28:52;96897.25;;;7.97;38.45
61324;BME280;47203;48.428;11.974;2023-03-03T06:30:57;96897.03;;;7.99;38.26
61324;BME280;47203;48.428;11.974;2023-03-03T06:33:01;96895.72;;;8.01;38.40
61324;BME280;47203;48.428;11.974;2023-03-03T06:35:06;96909.66;;;8.02;38.35
61324;BME280;47203;48.428;11.974;2023-03-03T06:37:13;96900.97;;;8.01;38.21
61324;BME280;47203;48.428;11.974;2023-03-03T06:39:17;96907.56;;;8.04;38.29
61324;BME280;47203;48.428;11.974;2023-03-03T06:41:21;96922.00;;;8.07;38.42
61324;BME280;47203;48.428;11.974;2023-03-03T06:43:26;96915.25;;;8.11;38.42
61324;BME280;47203;48.428;11.974;2023-03-03T06:45:30;96921.59;;;8.15;38.49
61324;BME280;47203;48.428;11.974;2023-03-03T06:47:35;96924.75;;;8.17;38.45
61324;BME280;47203;48.428;11.974;2023-03-03T06:49:39;96928.97;;;8.18;38.24
61324;BME280;47203;48.428;11.974;2023-03-03T06:51:44;96927.16;;;8.18;38.40
61324;BME280;47203;48.428;11.974;2023-03-03T06:53:51;96939.22;;;8.19;38.48
61324;BME280;47203;48.428;11.974;2023-03-03T06:55:57;96933.75;;;8.21;38.35
61324;BME280;47203;48.428;11.974;2023-03-03T06:58:04;96933.75;;;8.21;38.57
61324;BME280;47203;48.428;11.974;2023-03-03T07:00:13;96936.91;;;8.23;38.52
61324;BME280;47203;48.428;11.974;2023-03-03T07:02:18;96938.25;;;8.26;38.17
61324;BME280;47203;48.428;11.974;2023-03-03T07:04:25;96935.38;;;8.27;38.54
61324;BME280;47203;48.428;11.974;2023-03-03T07:06:32;96938.53;;;8.29;38.57
61324;BME280;47203;48.428;11.974;2023-03-03T07:08:36;96938.53;;;8.29;38.58
61324;BME280;47203;48.428;11.974;2023-03-03T07:10:46;96943.78;;;8.29;38.54
61324;BME280;47203;48.428;11.974;2023-03-03T07:12:50;96943.78;;;8.29;38.45
61324;BME280;47203;48.428;11.974;2023-03-03T07:14:56;96944.59;;;8.30;38.59
61324;BME280;47203;48.428;11.974;2023-03-03T07:17:03;96947.47;;;8.28;38.61
61324;BME280;47203;48.428;11.974;2023-03-03T07:19:12;96946.91;;;8.26;38.56
61324;BME280;47203;48.428;11.974;2023-03-03T07:21:20;96945.34;;;8.25;38.30
61324;BME280;47203;48.428;11.974;2023-03-03T07:23:26;96945.88;;;8.27;38.46
61324;BME280;47203;48.428;11.974;2023-03-03T07:25:31;96949.28;;;8.28;38.63
61324;BME280;47203;48.428;11.974;2023-03-03T07:27:39;96951.13;;;8.27;38.76
61324;BME280;47203;48.428;11.974;2023-03-03T07:29:44;96945.09;;;8.27;38.67
61324;BME280;47203;48.428;11.974;2023-03-03T07:31:50;96945.34;;;8.25;38.41
61324;BME280;47203;48.428;11.974;2023-03-03T07:33:54;96940.00;;;8.20;38.84
61324;BME280;47203;48.428;11.974;2023-03-03T07:36:00;96946.78;;;8.16;38.68
61324;BME280;47203;48.428;11.974;2023-03-03T07:40:30;96951.78;;;8.17;38.89
61324;BME280;47203;48.428;11.974;2023-03-03T07:42:40;96958.38;;;8.20;38.76
61324;BME280;47203;48.428;11.974;2023-03-03T07:44:55;96958.44;;;8.25;38.65
61324;BME280;47203;48.428;11.974;2023-03-03T07:47:01;96961.69;;;8.32;38.82
61324;BME280;47203;48.428;11.974;2023-03-03T07:49:20;96960.94;;;8.37;38.64
61324;BME280;47203;48.428;11.974;2023-03-03T07:51:26;96965.47;;;8.42;38.57
61324;BME280;47203;48.428;11.974;2023-03-03T07:53:33;96967.84;;;8.43;38.44
61324;BME280;47203;48.428;11.974;2023-03-03T07:55:38;96959.97;;;8.43;38.76
61324;BME280;47203;48.428;11.974;2023-03-03T07:57:46;96961.59;;;8.44;38.69
61324;BME280;47203;48.428;11.974;2023-03-03T07:59:54;96967.13;;;8.48;38.73
61324;BME280;47203;48.428;11.974;2023-03-03T08:02:16;96967.44;;;8.51;38.62
61324;BME280;47203;48.428;11.974;2023-03-03T08:04:31;96968.78;;;8.54;38.49
61324;BME280;47203;48.428;11.974;2023-03-03T08:06:43;96968.84;;;8.59;38.89
61324;BME280;47203;48.428;11.974;2023-03-03T08:08:48;96977.25;;;8.61;38.54
61324;BME280;47203;48.428;11.974;2023-03-03T08:10:53;96980.97;;;8.65;38.63
61324;BME280;47203;48.428;11.974;2023-03-03T08:13:01;96978.69;;;8.69;38.57
61324;BME280;47203;48.428;11.974;2023-03-03T08:17:38;96975.09;;;8.80;38.51
61324;BME280;47203;48.428;11.974;2023-03-03T08:19:42;96977.78;;;8.85;38.68
61324;BME280;47203;48.428;11.974;2023-03-03T08:21:46;96982.06;;;8.91;38.70
61324;BME280;47203;48.428;11.974;2023-03-03T08:23:51;96972.16;;;8.99;38.71
61324;BME280;47203;48.428;11.974;2023-03-03T08:25:56;96975.88;;;9.03;38.50
61324;BME280;47203;48.428;11.974;2023-03-03T08:28:03;96976.97;;;9.07;38.45
61324;BME280;47203;48.428;11.974;2023-03-03T08:30:08;96980.44;;;9.13;38.30
61324;BME280;47203;48.428;11.974;2023-03-03T08:32:13;96974.72;;;9.21;38.47
61324;BME280;47203;48.428;11.974;2023-03-03T08:34:18;96978.69;;;9.23;38.62
61324;BME280;47203;48.428;11.974;2023-03-03T08:36:22;96977.66;;;9.24;38.33
61324;BME280;47203;48.428;11.974;2023-03-03T08:38:27;96974.28;;;9.29;38.65
61324;BME280;47203;48.428;11.974;2023-03-03T08:40:31;96977.19;;;9.33;38.53
61324;BME280;47203;48.428;11.974;2023-03-03T08:42:36;96979.56;;;9.34;38.37
61324;BME280;47203;48.428;11.974;2023-03-03T08:44:43;96983.53;;;9.37;38.59
61324;BME280;47203;48.428;11.974;2023-03-03T08:46:47;96983.84;;;9.40;38.44
61324;BME280;47203;48.428;11.974;2023-03-03T08:48:52;96986.25;;;9.47;38.62
61324;BME280;47203;48.428;11.974;2023-03-03T08:50:56;96982.38;;;9.55;38.57
61324;BME280;47203;48.428;11.974;2023-03-03T08:53:01;96993.22;;;9.64;38.58
61324;BME280;47203;48.428;11.974;2023-03-03T08:55:06;96995.13;;;9.73;38.37
61324;BME280;47203;48.428;11.974;2023-03-03T08:57:10;96998.88;;;9.83;38.51
61324;BME280;47203;48.428;11.974;2023-03-03T08:59:15;96993.41;;;9.89;38.39
61324;BME280;47203;48.428;11.974;2023-03-03T09:01:22;96990.31;;;9.98;38.40
61324;BME280;47203;48.428;11.974;2023-03-03T09:03:26;96991.94;;;10.04;38.30
61324;BME280;47203;48.428;11.974;2023-03-03T09:05:31;97001.44;;;10.10;38.55
61324;BME280;47203;48.428;11.974;2023-03-03T09:07:36;97005.66;;;10.16;38.43
61324;BME280;47203;48.428;11.974;2023-03-03T09:09:41;97007.31;;;10.22;38.41
61324;BME280;47203;48.428;11.974;2023-03-03T09:11:46;97007.06;;;10.29;38.20
61324;BME280;47203;48.428;11.974;2023-03-03T09:13:50;97003.44;;;10.35;38.50
61324;BME280;47203;48.428;11.974;2023-03-03T09:15:57;97007.72;;;10.41;38.38
61324;BME280;47203;48.428;11.974;2023-03-03T09:18:09;97004.03;;;10.47;38.58
61324;BME280;47203;48.428;11.974;2023-03-03T09:20:27;97003.81;;;10.54;38.23
61324;BME280;47203;48.428;11.974;2023-03-03T09:22:35;97003.06;;;10.59;38.40
61324;BME280;47203;48.428;11.974;2023-03-03T09:24:40;97014.63;;;10.63;38.34
61324;BME280;47203;48.428;11.974;2023-03-03T09:26:46;97008.63;;;10.68;38.32
61324;BME280;47203;48.428;11.974;2023-03-03T09:28:53;97019.97;;;10.73;38.37
61324;BME280;47203;48.428;11.974;2023-03-03T09:30:59;97012.59;;;10.80;38.28
61324;BME280;47203;48.428;11.974;2023-03-03T09:33:25;97011.84;;;10.90;38.59
61324;BME280;47203;48.428;11.974;2023-03-03T09:35:34;97014.50;;;11.00;38.47
61324;BME280;47203;48.428;11.974;2023-03-03T09:37:41;97019.31;;;11.19;38.38
61324;BME280;47203;48.428;11.974;2023-03-03T09:39:46;97019.34;;;11.45;38.46
61324;BME280;47203;48.428;11.974;2023-03-03T09:41:56;97020.69;;;11.63;38.36
61324;BME280;47203;48.428;11.974;2023-03-03T09:44:21;97027.03;;;11.77;38.08
61324;BME280;47203;48.428;11.974;2023-03-03T09:46:32;97030.47;;;11.93;38.27
61324;BME280;47203;48.428;11.974;2023-03-03T09:48:53;97031.53;;;12.08;37.98
61324;BME280;47203;48.428;11.974;2023-03-03T09:51:09;97024.88;;;12.20;38.22
61324;BME280;47203;48.428;11.974;2023-03-03T09:53:18;97025.13;;;12.34;38.02
61324;BME280;47203;48.428;11.974;2023-03-03T09:55:37;97027.47;;;12.51;38.03
61324;BME280;47203;48.428;11.974;2023-03-03T09:57:50;97027.97;;;12.58;38.02
61324;BME280;47203;48.428;11.974;2023-03-03T10:00:17;97025.59;;;12.62;37.85
61324;BME280;47203;48.428;11.974;2023-03-03T10:02:26;97032.19;;;12.60;38.25
61324;BME280;47203;48.428;11.974;2023-03-03T10:04:44;97027.19;;;12.58;38.14
61324;BME280;47203;48.428;11.974;2023-03-03T10:06:54;97030.88;;;12.57;38.08
61324;BME280;47203;48.428;11.974;2023-03-03T10:09:06;97031.91;;;12.61;38.42
61324;BME280;47203;48.428;11.974;2023-03-03T10:11:17;97036.66;;;12.69;38.12
61324;BME280;47203;48.428;11.974;2023-03-03T10:13:25;97040.06;;;12.75;38.27
61324;BME280;47203;48.428;11.974;2023-03-03T10:15:36;97039.25;;;12.74;38.33
61324;BME280;47203;48.428;11.974;2023-03-03T10:17:46;97034.25;;;12.73;38.17
61324;BME280;47203;48.428;11.974;2023-03-03T10:22:18;97039.84;;;12.66;38.43
61324;BME280;47203;48.428;11.974;2023-03-03T10:24:26;97040.88;;;12.65;38.54
61324;BME280;47203;48.428;11.974;2023-03-03T10:26:47;97039.81;;;12.71;38.69
61324;BME280;47203;48.428;11.974;2023-03-03T10:29:21;97037.94;;;12.77;38.53
61324;BME280;47203;48.428;11.974;2023-03-03T10:31:34;97044.78;;;12.83;38.82
61324;BME280;47203;48.428;11.974;2023-03-03T10:33:45;97049.50;;;12.86;38.74
61324;BME280;47203;48.428;11.974;2023-03-03T10:35:59;97052.69;;;12.88;38.76
61324;BME280;47203;48.428;11.974;2023-03-03T10:38:16;97051.09;;;12.92;38.51
61324;BME280;47203;48.428;11.974;2023-03-03T10:40:28;97053.19;;;12.96;38.65
61324;BME280;47203;48.428;11.974;2023-03-03T10:42:38;97038.13;;;12.96;38.30
61324;BME280;47203;48.428;11.974;2023-03-03T10:44:56;97040.00;;;12.96;38.25
61324;BME280;47203;48.428;11.974;2023-03-03T10:47:17;97035.25;;;12.92;38.63
61324;BME280;47203;48.428;11.974;2023-03-03T10:49:29;97041.59;;;12.91;38.34
61324;BME280;47203;48.428;11.974;2023-03-03T10:51:41;97041.06;;;12.89;38.55
61324;BME280;47203;48.428;11.974;2023-03-03T10:53:52;97040.81;;;12.91;38.65
61324;BME280;47203;48.428;11.974;2023-03-03T10:56:07;97035.25;;;12.92;38.26
61324;BME280;47203;48.428;11.974;2023-03-03T10:58:20;97033.13;;;12.95;38.37
61324;BME280;47203;48.428;11.974;2023-03-03T11:00:28;97026.78;;;12.96;38.48
61324;BME280;47203;48.428;11.974;2023-03-03T11:02:37;97024.41;;;12.94;38.49
61324;BME280;47203;48.428;11.974;2023-03-03T11:04:51;97031.03;;;12.91;38.38
61324;BME280;47203;48.428;11.974;2023-03-03T11:07:01;97037.38;;;12.85;38.36
61324;BME280;47203;48.428;11.974;2023-03-03T11:09:12;97029.47;;;12.80;38.68
61324;BME280;47203;48.428;11.974;2023-03-03T11:11:22;97044.03;;;12.78;38.57
61324;BME280;47203;48.428;11.974;2023-03-03T11:13:32;97031.59;;;12.78;38.68
61324;BME280;47203;48.428;11.974;2023-03-03T11:15:54;97033.44;;;12.83;38.83
61324;BME280;47203;48.428;11.974;2023-03-03T11:18:09;97026.28;;;12.88;38.67
61324;BME280;47203;48.428;11.974;2023-03-03T11:20:20;97019.41;;;12.92;38.72